Martinez, CA (94553)

12:11 AM PDT on May 04, 2015 (GMT -0700)
Mtz/PH K6RHL | | Change Station
CLOSE
Current Station
Personal Weather Station
Location: Martinez, CA
Elevation: 350 ft
Nearby Weather Stations

Elev 350 ft 37.98 °N, 122.10 °W | Updated 13 minutes ago

Mostly Cloudy
Mostly Cloudy
52.9 °F
Feels Like 52.9 °F
N
0.0
Wind Variable Wind from WNW
Gusts 7.0 mph

Today
High -- | Low -- °F
--% Chance of Precip.
Yesterday
High -- | Low -- °F
Precip. -- in
6:09 AM 8:02 PM
Full, 100% visible
Pressure 29.87 in
Visibility 10.0 miles
Clouds Overcast 1600 ft
Dew Point 49 °F
Humidity 87%
Rainfall in
Snow Depth Not available.
UV 0 out of 12
Pollen 5.80 out of 12
Air Quality Not available.
Flu Activity Sporadic
METAR KCCR 040653Z 25006KT 10SM OVC016 12/08 A2991 RMK AO2 SLP114 T01220083

More Conditions Fewer Conditions

Pressure 29.87 in
Visibility 10.0 miles
Clouds Overcast 1600 ft
Dew Point 49 °F
Humidity 87%
Rainfall in
Snow Depth Not available.
UV 0 out of 12
Pollen 5.80 out of 12
Air Quality Not available.
Flu Activity Sporadic
METAR KCCR 040653Z 25006KT 10SM OVC016 12/08 A2991 RMK AO2 SLP114 T01220083

More Conditions Fewer Conditions

Nepal has a long way to go to dig out and rebuild from a devastating earthquake. We have teamed up with several charities and organizations to make contributing to the relief effort as easy as possible.
How you can help: Portlight Strategies | Red Cross

10-Day Weather Forecast

Almanac

Astronomy

May. 04, 2015 Rise Set
Actual Time
Civil Twilight
Nautical Twilight
Astronomical Twilight
Moon
Length of Visible Light
Length of Day
Tomorrow will be .
, % of the Moon is Illuminated

Today's Extremes

State Highs State Lows

Community

WunderPhotos

Upload Photos

1,818,543 photos uploaded!

WunderBlogs® & News

Nearby

Air Quality

  Air Quality AQ Index Pollutant
Not available.

Snow Depth

Station Depth Elevation

Earthquake Activity

City Distance Mag. Time & Date
Minimum magnitude displayed is 2.5.

Coastal Water Temperatures

Place Temperature

Stations

Nearby Weather Stations

Station Location Temp. Windchill Dew Point Humidity Wind Precip. Elev Updated Type